createdAt,value
2018-11-05T00:00:48.081Z,5.7
2018-11-05T00:01:37.932Z,5.6
2018-11-05T00:02:28.507Z,5.6
2018-11-05T00:03:18.540Z,5.6
2018-11-05T00:04:08.892Z,5.6
2018-11-05T00:04:59.186Z,5.6
2018-11-05T00:05:49.032Z,5.6
2018-11-05T00:06:39.074Z,5.5
2018-11-05T00:24:54.188Z,4.9
2018-11-05T00:25:44.006Z,4.9
2018-11-05T00:26:34.334Z,4.8
2018-11-05T00:27:24.137Z,4.8
2018-11-05T00:28:14.463Z,4.8
2018-11-05T00:29:04.522Z,4.8
2018-11-05T00:29:54.835Z,4.8
2018-11-05T00:30:44.923Z,4.7
2018-11-05T00:31:34.389Z,4.7
2018-11-05T00:32:25.058Z,4.6
2018-11-05T00:33:14.826Z,4.6
2018-11-05T00:34:04.896Z,4.6
2018-11-05T00:34:54.658Z,4.6
2018-11-05T00:35:44.705Z,4.6
2018-11-05T00:36:35.074Z,4.5
2018-11-05T00:37:25.075Z,4.5
2018-11-05T00:38:15.493Z,4.5
2018-11-05T00:39:05.245Z,4.4
2018-11-05T00:39:55.580Z,4.4
2018-11-05T00:40:45.389Z,4.4
2018-11-05T00:41:35.732Z,4.4
2018-11-05T00:42:25.775Z,4.4
2018-11-05T00:43:15.267Z,4.3
2018-11-05T00:44:05.327Z,4.3
2018-11-05T00:44:55.959Z,4.3
2018-11-05T00:45:46.411Z,4.3
2018-11-05T00:46:36.084Z,4.3
2018-11-05T00:47:26.375Z,4.3
2018-11-05T00:48:15.915Z,4.2
2018-11-05T00:49:06.255Z,4.2
2018-11-05T00:49:56.285Z,4.2
2018-11-05T00:50:45.820Z,4.1
2018-11-05T00:51:36.151Z,4.1
2018-11-05T00:52:26.226Z,4.1
2018-11-05T00:53:16.282Z,4.1
2018-11-05T00:54:06.637Z,4.1
2018-11-05T00:54:56.407Z,4.1
2018-11-05T00:55:46.750Z,4
2018-11-05T00:56:36.544Z,4
2018-11-05T00:57:27.109Z,4
2018-11-05T00:58:16.649Z,3.9
2018-11-05T00:59:06.721Z,3.9
2018-11-05T00:59:56.776Z,3.9
2018-11-05T01:00:46.546Z,3.9
2018-11-05T01:01:36.730Z,3.9
2018-11-05T01:02:26.966Z,3.9
2018-11-05T01:03:16.718Z,3.9
2018-11-05T01:04:07.080Z,3.9
2018-11-05T01:04:57.672Z,3.8
2018-11-05T01:05:46.900Z,3.8
2018-11-05T01:06:37.253Z,3.8
2018-11-05T01:07:27.323Z,3.8
2018-11-05T01:08:17.659Z,3.8
2018-11-05T01:09:07.453Z,3.8
2018-11-05T01:09:57.497Z,3.7
2018-11-05T01:10:47.863Z,3.7
2018-11-05T01:11:37.898Z,3.7
2018-11-05T01:12:27.974Z,3.7
2018-11-05T01:13:18.036Z,3.6
2018-11-05T01:14:07.805Z,3.7
2018-11-05T01:14:57.891Z,3.6
2018-11-05T01:15:48.218Z,3.6
2018-11-05T01:16:38.004Z,3.6
2018-11-05T01:17:27.761Z,3.6
2018-11-05T01:18:17.919Z,3.6
2018-11-05T01:19:08.445Z,3.6
2018-11-05T01:19:58.498Z,3.5
2018-11-05T01:20:48.000Z,3.5
2018-11-05T01:21:38.342Z,3.5
2018-11-05T01:22:28.698Z,3.4
2018-11-05T01:23:18.486Z,3.4
2018-11-05T01:24:08.820Z,3.4
2018-11-05T01:24:58.598Z,3.4
2018-11-05T01:25:48.640Z,3.4
2018-11-05T01:26:38.738Z,3.4
2018-11-05T01:27:28.793Z,3.4
2018-11-05T01:28:18.826Z,3.4
2018-11-05T01:29:08.907Z,3.3
2018-11-05T01:29:59.247Z,3.3
2018-11-05T01:30:49.325Z,3.3
2018-11-05T01:31:39.077Z,3.3
2018-11-05T01:32:29.146Z,3.3
2018-11-05T01:33:18.922Z,3.3
2018-11-05T01:34:09.290Z,3.2
2018-11-05T01:34:58.751Z,3.3
2018-11-05T01:35:49.671Z,3.2
2018-11-05T01:36:39.169Z,3.2
2018-11-05T01:37:29.218Z,3.1
2018-11-05T01:38:19.846Z,3.1
2018-11-05T01:39:09.324Z,3.1
2018-11-05T01:39:59.692Z,3.1
2018-11-05T01:40:49.752Z,3.1
2018-11-05T01:41:39.810Z,3.1
2018-11-05T01:42:30.163Z,3.1
2018-11-05T01:43:19.649Z,3.1
2018-11-05T01:44:10.286Z,3.1
2018-11-05T01:45:00.136Z,3.1
2018-11-05T01:45:50.386Z,3
2018-11-05T01:46:39.884Z,3
2018-11-05T01:47:30.258Z,3
2018-11-05T01:48:20.038Z,3
2018-11-05T01:49:10.356Z,2.9
2018-11-05T01:50:00.712Z,2.9
2018-11-05T01:50:50.196Z,2.9
2018-11-05T01:51:41.070Z,2.9
2018-11-05T01:52:30.626Z,2.9
2018-11-05T01:53:20.967Z,2.9
2018-11-05T01:54:10.445Z,2.9
2018-11-05T01:55:00.298Z,2.9
2018-11-05T01:55:50.559Z,2.9
2018-11-05T01:56:40.902Z,2.9
2018-11-05T01:57:30.965Z,2.8
2018-11-05T01:58:21.320Z,2.8
2018-11-05T01:59:11.323Z,2.8
2018-11-05T02:00:01.453Z,2.8
2018-11-05T02:00:50.925Z,2.8
2018-11-05T02:01:41.261Z,2.8
2018-11-05T02:02:31.670Z,2.8
2018-11-05T02:03:21.403Z,2.8
2018-11-05T02:04:11.447Z,2.8
2018-11-05T02:05:01.823Z,2.8
2018-11-05T02:05:51.869Z,2.8
2018-11-05T02:06:41.642Z,2.7
2018-11-05T02:07:31.690Z,2.7
2018-11-05T02:08:21.752Z,2.7
2018-11-05T02:09:11.547Z,2.7
2018-11-05T02:10:02.304Z,2.7
2018-11-05T02:10:51.947Z,2.7
2018-11-05T02:11:42.274Z,2.7
2018-11-05T02:12:32.602Z,2.7
2018-11-05T02:13:22.751Z,2.7
2018-11-05T02:14:12.469Z,2.7
2018-11-05T02:15:02.551Z,2.6
2018-11-05T02:15:53.017Z,2.7
2018-11-05T02:16:42.667Z,2.6
2018-11-05T02:17:32.439Z,2.7
2018-11-05T02:18:22.211Z,2.6
2018-11-05T02:19:12.571Z,2.6
2018-11-05T02:20:02.915Z,2.6
2018-11-05T02:20:52.671Z,2.6
2018-11-05T02:21:42.539Z,2.6
2018-11-05T02:22:33.081Z,2.6
2018-11-05T02:23:23.154Z,2.6
2018-11-05T02:24:12.930Z,2.6
2018-11-05T02:25:02.982Z,2.6
2018-11-05T02:25:52.752Z,2.6
2018-11-05T02:26:43.376Z,2.6
2018-11-05T02:27:32.864Z,2.6
2018-11-05T02:28:23.213Z,2.6
2018-11-05T02:29:13.553Z,2.6
2018-11-05T02:30:03.068Z,2.6
2018-11-05T02:30:53.928Z,2.6
2018-11-05T02:31:43.756Z,2.6
2018-11-05T02:32:33.823Z,2.6
2018-11-05T02:33:23.888Z,2.6
2018-11-05T02:34:13.941Z,2.5
2018-11-05T02:35:03.998Z,2.5
2018-11-05T02:35:53.478Z,2.6
2018-11-05T02:36:44.127Z,2.5
2018-11-05T02:37:34.145Z,2.5
2018-11-05T02:38:23.956Z,2.5
2018-11-05T02:39:14.285Z,2.5
2018-11-05T02:40:04.363Z,2.5
2018-11-05T02:40:53.955Z,2.5
2018-11-05T02:41:44.285Z,2.4
2018-11-05T02:42:34.246Z,2.4
2018-11-05T02:43:24.857Z,2.4
2018-11-05T02:44:14.678Z,2.4
2018-11-05T02:45:04.715Z,2.4
2018-11-05T02:45:54.505Z,2.4
2018-11-05T02:46:44.552Z,2.4
2018-11-05T02:47:34.642Z,2.4
2018-11-05T02:48:24.942Z,2.4
2018-11-05T02:49:14.745Z,2.4
2018-11-05T02:50:05.081Z,2.4
2018-11-05T02:50:54.823Z,2.4
2018-11-05T02:51:44.942Z,2.4
2018-11-05T02:52:35.027Z,2.4
2018-11-05T02:53:25.322Z,2.3
2018-11-05T02:54:15.397Z,2.3
2018-11-05T02:55:05.177Z,2.3
2018-11-05T02:55:54.947Z,2.3
2018-11-05T02:56:45.567Z,2.3
2018-11-05T02:57:35.364Z,2.3
2018-11-05T02:58:25.710Z,2.3
2018-11-05T02:59:15.481Z,2.3
2018-11-05T03:00:05.242Z,2.3
2018-11-05T03:00:55.871Z,2.3
2018-11-05T03:01:45.259Z,2.3
2018-11-05T03:02:35.725Z,2.2
2018-11-05T03:03:26.594Z,2.2
2018-11-05T03:04:15.887Z,2.2
2018-11-05T03:05:06.199Z,2.2
2018-11-05T03:05:56.266Z,2.2
2018-11-05T03:06:46.018Z,2.2
2018-11-05T03:07:35.889Z,2.1
2018-11-05T03:08:26.143Z,2.1
2018-11-05T03:09:16.738Z,2.1
2018-11-05T03:10:06.270Z,2.1
2018-11-05T03:10:56.613Z,2.1
2018-11-05T03:11:46.671Z,2.1
2018-11-05T03:12:36.453Z,2.1
2018-11-05T03:13:26.800Z,2.1
2018-11-05T03:14:16.596Z,2.1
2018-11-05T03:15:06.932Z,2.1
2018-11-05T03:15:56.399Z,2
2018-11-05T03:16:47.042Z,2.1
2018-11-05T03:17:36.846Z,2
2018-11-05T03:18:26.876Z,2
2018-11-05T03:19:16.942Z,2
2018-11-05T03:20:06.981Z,2
2018-11-05T03:20:57.340Z,1.9
2018-11-05T03:21:47.407Z,1.9
2018-11-05T03:22:36.898Z,1.9
2018-11-05T03:23:27.793Z,1.9
2018-11-05T03:24:17.300Z,1.9
2018-11-05T03:25:07.357Z,1.9
2018-11-05T03:25:57.708Z,1.9
2018-11-05T03:26:47.215Z,1.9
2018-11-05T03:27:37.525Z,1.9
2018-11-05T03:28:27.877Z,1.9
2018-11-05T03:29:17.668Z,1.8
2018-11-05T03:30:08.001Z,1.8
2018-11-05T03:30:57.785Z,1.8
2018-11-05T03:31:47.815Z,1.8
2018-11-05T03:32:37.905Z,1.8
2018-11-05T03:33:27.965Z,1.8
2018-11-05T03:34:18.040Z,1.8
2018-11-05T03:35:08.095Z,1.8
2018-11-05T03:35:59.083Z,1.8
2018-11-05T03:36:48.767Z,1.7
2018-11-05T03:37:38.260Z,1.7
2018-11-05T03:38:28.621Z,1.7
2018-11-05T03:39:18.960Z,1.7
2018-11-05T03:40:08.439Z,1.6
2018-11-05T03:40:58.520Z,1.6
2018-11-05T03:41:48.575Z,1.6
2018-11-05T03:42:38.432Z,1.6
2018-11-05T03:43:28.718Z,1.6
2018-11-05T03:44:18.745Z,1.6
2018-11-05T03:45:09.114Z,1.6
2018-11-05T03:45:58.893Z,1.6
2018-11-05T03:46:48.943Z,1.6
2018-11-05T03:47:38.988Z,1.6
2018-11-05T03:48:29.062Z,1.6
2018-11-05T03:49:19.227Z,1.6
2018-11-05T03:50:09.467Z,1.5
2018-11-05T03:50:59.545Z,1.5
2018-11-05T03:51:49.585Z,1.5
2018-11-05T03:52:39.070Z,1.5
2018-11-05T03:53:29.450Z,1.5
2018-11-05T03:54:19.494Z,1.4
2018-11-05T03:55:09.554Z,1.4
2018-11-05T03:55:59.854Z,1.4
2018-11-05T03:56:50.541Z,1.4
2018-11-05T03:57:39.731Z,1.4
2018-11-05T03:58:29.774Z,1.4
2018-11-05T03:59:19.553Z,1.4
2018-11-05T04:00:10.444Z,1.4
2018-11-05T04:01:00.263Z,1.4
2018-11-05T04:01:50.043Z,1.4
2018-11-05T04:02:40.408Z,1.4
2018-11-05T04:03:30.186Z,1.4
2018-11-05T04:04:20.488Z,1.4
2018-11-05T04:05:10.578Z,1.4
2018-11-05T04:06:00.601Z,1.4
2018-11-05T04:06:50.693Z,1.4
2018-11-05T04:07:40.461Z,1.3
2018-11-05T04:08:30.804Z,1.3
2018-11-05T04:09:20.565Z,1.3
2018-11-05T04:10:10.656Z,1.3
2018-11-05T04:11:01.002Z,1.3
2018-11-05T04:11:50.464Z,1.3
2018-11-05T04:12:41.100Z,1.3
2018-11-05T04:13:30.883Z,1.3
2018-11-05T04:14:20.939Z,1.3
2018-11-05T04:15:11.814Z,1.3
2018-11-05T04:16:01.827Z,1.3
2018-11-05T04:16:51.118Z,1.3
2018-11-05T04:17:41.255Z,1.3
2018-11-05T04:18:31.563Z,1.3
2018-11-05T04:19:21.293Z,1.3
2018-11-05T04:20:11.915Z,1.3
2018-11-05T04:21:01.437Z,1.3
2018-11-05T04:21:51.293Z,1.3
2018-11-05T04:22:41.563Z,1.3
2018-11-05T04:23:31.905Z,1.3
2018-11-05T04:24:21.672Z,1.3
2018-11-05T04:25:11.455Z,1.3
2018-11-05T04:26:01.807Z,1.3
2018-11-05T04:26:52.160Z,1.3
2018-11-05T04:27:42.051Z,1.3
2018-11-05T04:28:32.261Z,1.3
2018-11-05T04:29:22.339Z,1.3
2018-11-05T04:30:12.089Z,1.3
2018-11-05T04:31:02.442Z,1.2
2018-11-05T04:31:52.213Z,1.2
2018-11-05T04:32:42.582Z,1.2
2018-11-05T04:33:32.635Z,1.2
2018-11-05T04:34:22.686Z,1.2
2018-11-05T04:35:12.456Z,1.2
2018-11-05T04:36:02.509Z,1.2
2018-11-05T04:54:06.024Z,1
2018-11-05T04:54:56.363Z,1.1
2018-11-05T04:55:46.433Z,1
2018-11-05T04:56:36.198Z,1
2018-11-05T04:57:25.988Z,1
2018-11-05T04:58:16.858Z,1
2018-11-05T04:59:06.683Z,1
2018-11-05T04:59:55.856Z,1
2018-11-05T05:00:46.765Z,1
2018-11-05T05:01:36.833Z,1
2018-11-05T05:02:26.326Z,1
2018-11-05T05:03:17.235Z,0.9
2018-11-05T05:04:06.440Z,1
2018-11-05T05:04:57.088Z,0.9
2018-11-05T05:05:47.173Z,0.9
2018-11-05T05:06:36.908Z,0.9
2018-11-05T05:07:26.978Z,0.9
2018-11-05T05:08:16.763Z,0.9
2018-11-05T05:09:07.115Z,0.9
2018-11-05T05:09:57.460Z,0.9
2018-11-05T05:10:46.942Z,0.9
2018-11-05T05:11:36.985Z,0.9
2018-11-05T05:12:27.348Z,0.9
2018-11-05T05:13:17.670Z,0.9
2018-11-05T05:14:07.461Z,0.9
2018-11-05T05:14:57.787Z,0.9
2018-11-05T05:15:47.305Z,0.9
2018-11-05T05:16:37.923Z,0.9
2018-11-05T05:17:27.709Z,0.9
2018-11-05T05:18:18.029Z,0.9
2018-11-05T05:19:08.116Z,0.9
2018-11-05T05:19:58.423Z,0.9
2018-11-05T05:20:48.219Z,0.9
2018-11-05T05:21:38.277Z,0.9
2018-11-05T05:22:28.268Z,0.9
2018-11-05T05:23:18.216Z,0.9
2018-11-05T05:24:08.196Z,0.9
2018-11-05T05:24:58.531Z,0.9
2018-11-05T05:25:48.579Z,0.9
2018-11-05T05:26:38.641Z,0.9
2018-11-05T05:27:28.238Z,0.9
2018-11-05T05:28:18.490Z,0.9
2018-11-05T05:29:08.543Z,0.9
2018-11-05T05:29:58.597Z,0.9
2018-11-05T05:30:48.949Z,0.9
2018-11-05T05:31:38.736Z,0.9
2018-11-05T05:32:28.796Z,0.9
2018-11-05T05:33:18.886Z,0.9
2018-11-05T05:34:09.236Z,0.9
2018-11-05T05:34:59.488Z,1
2018-11-05T05:35:48.742Z,1
2018-11-05T05:36:39.086Z,1
2018-11-05T05:37:28.871Z,1
2018-11-05T05:38:19.503Z,1.1
2018-11-05T05:39:09.278Z,1.1
2018-11-05T05:39:59.131Z,1.1
2018-11-05T05:40:49.886Z,1.1
2018-11-05T05:41:39.461Z,1.2
2018-11-05T05:42:29.800Z,1.2
2018-11-05T05:43:19.590Z,1.3
2018-11-05T05:44:09.922Z,1.3
2018-11-05T05:44:59.995Z,1.3
2018-11-05T05:45:49.747Z,1.3
2018-11-05T05:46:39.523Z,1.4
2018-11-05T05:47:30.160Z,1.4
2018-11-05T05:48:19.933Z,1.4
2018-11-05T05:49:10.262Z,1.5
2018-11-05T05:50:00.487Z,1.5
2018-11-05T05:50:50.105Z,1.6
2018-11-05T05:51:40.167Z,1.6
2018-11-05T05:52:30.513Z,1.7
2018-11-05T05:53:20.290Z,1.8
2018-11-05T05:54:10.362Z,1.8
2018-11-05T05:55:00.416Z,1.8
2018-11-05T05:55:50.462Z,1.9
2018-11-05T05:56:40.527Z,1.9
2018-11-05T05:57:30.322Z,2.1
2018-11-05T05:58:20.709Z,2.1
2018-11-05T05:59:10.526Z,2.2
2018-11-05T06:00:01.524Z,2.3
2018-11-05T06:00:50.646Z,2.3
2018-11-05T06:01:40.606Z,2.4
2018-11-05T06:02:30.669Z,2.5
2018-11-05T06:03:21.026Z,2.6
2018-11-05T06:04:11.361Z,2.7
2018-11-05T06:05:01.153Z,2.8
2018-11-05T06:05:50.929Z,2.9
2018-11-05T06:06:41.446Z,3
2018-11-05T06:07:31.321Z,3.1
2018-11-05T06:08:21.089Z,3.3
2018-11-05T06:09:11.791Z,3.4
2018-11-05T06:10:01.294Z,3.4
2018-11-05T06:10:51.848Z,3.6
2018-11-05T06:11:41.615Z,3.7
2018-11-05T06:12:31.963Z,3.8
2018-11-05T06:13:21.753Z,3.9
2018-11-05T06:14:12.081Z,4.1
2018-11-05T06:15:01.869Z,4.2
2018-11-05T06:15:52.438Z,4.4
2018-11-05T06:16:41.991Z,4.5
2018-11-05T06:17:32.033Z,4.6
2018-11-05T06:18:22.403Z,4.8
2018-11-05T06:19:11.973Z,4.9
2018-11-05T06:20:02.526Z,5.1
2018-11-05T06:20:52.080Z,5.3
2018-11-05T06:21:42.811Z,5.4
2018-11-05T06:22:32.108Z,5.6
2018-11-05T06:23:22.538Z,5.8
2018-11-05T06:24:12.527Z,5.9
2018-11-05T06:25:02.592Z,6.1
2018-11-05T06:25:52.918Z,6.3
2018-11-05T06:26:42.423Z,6.4
2018-11-05T06:27:32.556Z,6.6
2018-11-05T06:28:23.162Z,6.8
2018-11-05T06:29:13.160Z,6.9
2018-11-05T06:30:03.239Z,7.1
2018-11-05T06:30:53.310Z,7.3
2018-11-05T06:31:43.160Z,7.5
2018-11-05T06:32:33.135Z,7.7
2018-11-05T06:33:23.183Z,7.9
2018-11-05T06:34:13.256Z,8.1
2018-11-05T06:35:03.677Z,8.3
2018-11-05T06:35:53.362Z,8.5
2018-11-05T06:36:43.727Z,8.7
2018-11-05T06:37:33.484Z,8.9
2018-11-05T06:38:23.552Z,9.1
2018-11-05T06:39:13.907Z,9.4
2018-11-05T06:40:03.659Z,9.6
2018-11-05T06:40:54.014Z,9.8
2018-11-05T06:41:44.018Z,7.1
2018-11-05T06:42:33.568Z,13.4
2018-11-05T06:43:23.909Z,19.6
2018-11-05T06:44:14.859Z,20.3
2018-11-05T06:45:04.362Z,23.1
2018-11-05T06:45:54.102Z,25.8
2018-11-05T06:46:44.147Z,26.4
2018-11-05T06:47:34.496Z,26.5
2018-11-05T06:48:24.556Z,26.5
2018-11-05T06:49:14.344Z,26.4
2018-11-05T06:50:04.681Z,26.3
2018-11-05T06:50:54.444Z,26.1
2018-11-05T06:51:44.509Z,25.9
2018-11-05T06:52:34.709Z,25.8
2018-11-05T06:53:24.675Z,25.7
2018-11-05T06:54:14.981Z,25.6
2018-11-05T06:55:04.775Z,25.4
2018-11-05T06:55:55.119Z,25.4
2018-11-05T06:56:44.683Z,25.3
2018-11-05T06:57:35.367Z,25.2
2018-11-05T06:58:25.306Z,25.1
2018-11-05T06:59:14.763Z,25
2018-11-05T07:00:05.108Z,24.9
2018-11-05T07:00:54.905Z,24.9
2018-11-05T07:01:45.539Z,24.9
2018-11-05T07:02:35.092Z,24.8
2018-11-05T07:03:25.074Z,24.8
2018-11-05T07:04:15.419Z,24.8
2018-11-05T07:05:05.489Z,24.3
2018-11-05T07:05:56.280Z,23.9
2018-11-05T07:06:45.624Z,23.9
2018-11-05T07:07:35.657Z,23.6
2018-11-05T07:08:26.027Z,26.8
2018-11-05T07:09:15.784Z,28.8
2018-11-05T07:10:06.131Z,29.2
2018-11-05T07:10:55.614Z,28.8
2018-11-05T07:11:45.669Z,28.1
2018-11-05T07:12:36.031Z,27.5
2018-11-05T07:13:26.369Z,27.3
2018-11-05T07:14:16.143Z,27.4
2018-11-05T07:15:06.208Z,27.9
2018-11-05T07:15:55.965Z,28.3
2018-11-05T07:16:46.042Z,28.6
2018-11-05T07:17:36.385Z,28.8
2018-11-05T07:18:26.846Z,28.8
2018-11-05T07:19:16.896Z,28.8
2018-11-05T07:20:07.093Z,28.9
2018-11-05T07:20:56.344Z,29
2018-11-05T07:21:46.403Z,29.2
2018-11-05T07:22:36.753Z,29.4
2018-11-05T07:23:27.087Z,29.6
2018-11-05T07:24:17.169Z,29.8
2018-11-05T07:25:06.639Z,30
2018-11-05T07:25:56.693Z,30.2
2018-11-05T07:26:47.046Z,30.4
2018-11-05T07:27:37.707Z,30.5
2018-11-05T07:28:27.158Z,30.7
2018-11-05T07:29:17.514Z,30.9
2018-11-05T07:30:06.991Z,31.1
2018-11-05T07:30:57.620Z,31.2
2018-11-05T07:31:47.222Z,31.4
2018-11-05T07:32:36.888Z,31.6
2018-11-05T07:33:28.511Z,31.7
2018-11-05T07:34:18.299Z,31.9
2018-11-05T07:35:07.368Z,32.1
2018-11-05T07:35:57.718Z,32.3
2018-11-05T07:36:47.491Z,32.4
2018-11-05T07:37:38.148Z,32.6
2018-11-05T07:38:27.683Z,32.8
2018-11-05T07:39:17.955Z,33
2018-11-05T07:40:08.015Z,33.2
2018-11-05T07:40:58.085Z,33.4
2018-11-05T07:41:47.861Z,33.6
2018-11-05T07:42:37.910Z,33.8
2018-11-05T07:43:28.845Z,33.9
2018-11-05T07:44:18.333Z,34.1
2018-11-05T07:45:08.363Z,34.2
2018-11-05T07:45:58.727Z,34.3
2018-11-05T07:46:48.200Z,34.5
2018-11-05T07:47:38.547Z,34.6
2018-11-05T07:48:28.322Z,34.8
2018-11-05T07:49:18.939Z,34.9
2018-11-05T07:50:09.166Z,35.1
2018-11-05T07:50:59.077Z,35.2
2018-11-05T07:51:48.859Z,35.4
2018-11-05T07:52:38.907Z,35.5
2018-11-05T07:53:29.033Z,35.6
2018-11-05T07:54:19.322Z,35.8
2018-11-05T07:55:09.114Z,35.9
2018-11-05T07:55:59.029Z,36.1
2018-11-05T07:56:49.893Z,36.2
2018-11-05T07:57:39.273Z,36.3
2018-11-05T07:58:29.626Z,36.4
2018-11-05T07:59:19.386Z,36.6
2018-11-05T08:00:09.755Z,36.7
2018-11-05T08:00:59.519Z,36.9
2018-11-05T08:01:49.673Z,37.1
2018-11-05T08:02:39.434Z,37.2
2018-11-05T08:03:29.694Z,37.4
2018-11-05T08:04:20.012Z,37.5
2018-11-05T08:05:09.833Z,37.7
2018-11-05T08:05:59.605Z,37.8
2018-11-05T08:06:50.281Z,38
2018-11-05T08:07:40.021Z,38.1
2018-11-05T08:08:30.964Z,38.3
2018-11-05T08:09:20.413Z,38.4
2018-11-05T08:10:10.478Z,38.6
2018-11-05T08:11:00.528Z,38.8
2018-11-05T08:11:50.600Z,38.9
2018-11-05T08:12:40.388Z,39.1
2018-11-05T08:13:30.428Z,39.2
2018-11-05T08:14:21.162Z,39.4
2018-11-05T08:15:09.973Z,39.6
2018-11-05T08:16:00.600Z,39.7
2018-11-05T08:16:50.463Z,39.8
2018-11-05T08:17:40.997Z,39.9
2018-11-05T08:18:30.790Z,40.1
2018-11-05T08:19:20.850Z,40.3
2018-11-05T08:20:10.903Z,40.4
2018-11-05T08:21:00.970Z,40.5
2018-11-05T08:21:50.745Z,40.7
2018-11-05T08:22:40.795Z,40.9
2018-11-05T08:23:31.462Z,41.1
2018-11-05T08:24:20.717Z,41.2
2018-11-05T08:25:10.992Z,41.3
2018-11-05T08:26:01.587Z,41.5
2018-11-05T08:26:51.374Z,41.6
2018-11-05T08:27:41.730Z,41.7
2018-11-05T08:28:31.513Z,41.9
2018-11-05T08:29:21.294Z,42
2018-11-05T08:30:11.637Z,42.1
2018-11-05T08:31:01.980Z,42.3
2018-11-05T08:31:51.759Z,42.4
2018-11-05T08:32:42.091Z,42.6
2018-11-05T08:33:31.876Z,42.7
2018-11-05T08:34:21.745Z,42.8
2018-11-05T08:35:12.268Z,42.9
2018-11-05T08:36:02.309Z,42.9
2018-11-05T08:36:52.102Z,43.1
2018-11-05T08:37:42.165Z,43.3
2018-11-05T08:38:32.244Z,43.3
2018-11-05T08:39:22.287Z,43.4
2018-11-05T08:40:12.992Z,43.6
2018-11-05T08:41:02.426Z,43.8
2018-11-05T08:41:52.483Z,43.9
2018-11-05T08:42:42.257Z,43.9
2018-11-05T08:43:32.903Z,44
2018-11-05T08:44:22.760Z,44.1
2018-11-05T08:45:12.703Z,44.3
2018-11-05T08:46:02.769Z,44.4
2018-11-05T08:46:53.473Z,44.5
2018-11-05T08:47:42.909Z,44.7
2018-11-05T08:48:32.973Z,44.8
2018-11-05T08:49:23.006Z,44.9
2018-11-05T08:50:13.083Z,45
2018-11-05T08:51:04.668Z,45.2
2018-11-05T08:51:53.408Z,45.3
2018-11-05T09:08:36.462Z,47.4
2018-11-05T09:09:26.620Z,47.5
2018-11-05T09:10:17.508Z,47.6
2018-11-05T09:11:07.636Z,47.8
2018-11-05T09:11:56.867Z,47.8
2018-11-05T09:12:47.084Z,47.9
2018-11-05T09:13:37.292Z,48.1
2018-11-05T09:14:26.585Z,48.2
2018-11-05T09:15:17.202Z,48.3
2018-11-05T09:16:07.255Z,48.3
2018-11-05T09:16:57.052Z,48.3
2018-11-05T09:17:47.091Z,48.4
2018-11-05T09:18:36.887Z,48.6
2018-11-05T09:19:27.522Z,48.6
2018-11-05T09:20:17.302Z,48.8
2018-11-05T09:21:06.860Z,48.9
2018-11-05T09:21:57.210Z,49
2018-11-05T09:22:47.746Z,49.1
2018-11-05T09:23:37.524Z,49.3
2018-11-05T09:24:27.891Z,49.4
2018-11-05T09:25:17.659Z,49.4
2018-11-05T09:26:07.724Z,49.5
2018-11-05T09:26:57.480Z,49.6
2018-11-05T09:27:48.400Z,49.7
2018-11-05T09:28:38.196Z,49.8
2018-11-05T09:29:27.942Z,49.9
2018-11-05T09:30:18.291Z,50
2018-11-05T09:31:08.356Z,50.1
2018-11-05T09:31:58.151Z,50.3
2018-11-05T09:32:47.899Z,50.4
2018-11-05T09:33:37.977Z,50.4
2018-11-05T09:34:28.047Z,50.6
2018-11-05T09:35:18.379Z,50.7
2018-11-05T09:36:08.747Z,50.8
2018-11-05T09:36:58.213Z,50.9
2018-11-05T09:37:48.571Z,51
2018-11-05T09:38:38.616Z,51.1
2018-11-05T09:39:28.655Z,51.2
2018-11-05T09:40:18.451Z,51.3
2018-11-05T09:41:08.796Z,51.4
2018-11-05T09:41:59.146Z,51.5
2018-11-05T09:42:49.159Z,51.6
2018-11-05T09:43:38.713Z,51.6
2018-11-05T09:44:28.766Z,51.7
2018-11-05T09:45:19.118Z,51.8
2018-11-05T09:46:59.228Z,52.1
2018-11-05T09:47:49.580Z,52.1
2018-11-05T09:48:39.068Z,52.2
2018-11-05T09:49:29.438Z,52.3
2018-11-05T09:50:19.862Z,52.4
2018-11-05T09:51:09.840Z,52.5
2018-11-05T09:51:59.321Z,52.5
2018-11-05T09:52:49.940Z,52.6
2018-11-05T09:53:39.996Z,52.8
2018-11-05T09:54:30.060Z,52.8
2018-11-05T09:55:20.140Z,52.9
2018-11-05T09:56:10.185Z,53.1
2018-11-05T09:57:00.041Z,53.1
2018-11-05T09:57:49.775Z,53.2
2018-11-05T09:58:40.101Z,53.3
2018-11-05T09:59:30.429Z,53.4
2018-11-05T10:00:20.187Z,53.4
2018-11-05T10:01:09.979Z,53.6
2018-11-05T10:02:00.040Z,53.7
2018-11-05T10:02:50.629Z,53.8
2018-11-05T10:03:41.779Z,53.9
2018-11-05T10:04:32.248Z,54
2018-11-05T10:05:21.319Z,54.1
2018-11-05T10:06:10.637Z,54.1
2018-11-05T10:07:00.959Z,54.2
2018-11-05T10:07:51.036Z,54.3
2018-11-05T10:08:40.809Z,54.4
2018-11-05T10:09:31.051Z,54.5
2018-11-05T10:10:21.495Z,54.6
2018-11-05T10:11:10.992Z,54.7
2018-11-05T10:12:01.354Z,54.8
2018-11-05T10:12:51.396Z,54.9
2018-11-05T10:13:41.156Z,54.9
2018-11-05T10:14:31.221Z,55
2018-11-05T10:15:21.849Z,55.1
2018-11-05T10:16:11.328Z,55.2
2018-11-05T10:17:01.721Z,55.3
2018-11-05T10:17:51.814Z,55.4
2018-11-05T10:18:41.821Z,55.5
2018-11-05T10:19:31.587Z,55.6
2018-11-05T10:20:21.637Z,55.6
2018-11-05T10:21:12.008Z,55.7
2018-11-05T10:22:01.778Z,55.8
2018-11-05T10:22:51.638Z,55.9
2018-11-05T10:23:41.898Z,55.9
2018-11-05T10:24:32.741Z,56
2018-11-05T10:25:21.740Z,56.1
2018-11-05T10:26:12.238Z,56.3
2018-11-05T10:27:02.143Z,56.3
2018-11-05T10:27:52.217Z,56.4
2018-11-05T10:28:41.775Z,56.4
2018-11-05T10:29:32.045Z,56.6
2018-11-05T10:30:22.389Z,56.6
2018-11-05T10:31:12.435Z,56.7
2018-11-05T10:32:02.227Z,56.8
2018-11-05T10:32:52.681Z,56.8
2018-11-05T10:33:42.584Z,56.9
2018-11-05T10:34:32.970Z,56.9
2018-11-05T10:35:22.457Z,57
2018-11-05T10:36:12.517Z,57.1
2018-11-05T10:37:02.691Z,57.2
2018-11-05T10:37:52.447Z,57.3
2018-11-05T10:38:42.508Z,57.3
2018-11-05T10:39:33.054Z,57.4
2018-11-05T10:40:23.193Z,57.5
2018-11-05T10:41:13.184Z,57.6
2018-11-05T10:42:03.253Z,57.6
2018-11-05T10:43:43.342Z,57.8
2018-11-05T10:44:33.404Z,57.9
2018-11-05T10:45:23.284Z,57.9
2018-11-05T10:46:14.102Z,58
2018-11-05T10:47:03.566Z,58.1
2018-11-05T10:47:53.967Z,58.1
2018-11-05T10:48:43.439Z,58.2
2018-11-05T10:49:33.789Z,58.3
2018-11-05T10:50:24.603Z,58.3
2018-11-05T10:51:14.492Z,58.4
2018-11-05T10:52:05.514Z,58.5
2018-11-05T10:52:54.311Z,58.6
2018-11-05T10:53:44.372Z,58.7
2018-11-05T10:54:34.488Z,58.8
2018-11-05T10:55:24.492Z,58.8
2018-11-05T10:56:14.375Z,58.9
2018-11-05T10:57:04.871Z,58.9
2018-11-05T10:57:54.699Z,59
2018-11-05T10:58:44.738Z,59.1
2018-11-05T10:59:34.513Z,59.1
2018-11-05T11:00:24.298Z,59.2
2018-11-05T11:01:14.639Z,59.3
2018-11-05T11:02:05.229Z,59.3
2018-11-05T11:02:55.048Z,59.4
2018-11-05T11:03:45.043Z,59.5
2018-11-05T11:04:35.366Z,59.6
2018-11-05T11:05:25.228Z,59.6
2018-11-05T11:06:14.722Z,59.6
2018-11-05T11:07:05.330Z,59.7
2018-11-05T11:07:55.128Z,59.8
2018-11-05T11:08:45.476Z,59.8
2018-11-05T11:09:35.492Z,59.9
2018-11-05T11:10:25.828Z,60
2018-11-05T11:11:15.655Z,60.1
2018-11-05T11:12:05.443Z,60.1
2018-11-05T11:12:55.475Z,60.2
2018-11-05T11:13:45.541Z,60.3
2018-11-05T11:14:35.925Z,60.3
2018-11-05T11:15:26.111Z,60.3
2018-11-05T11:16:15.741Z,60.4
2018-11-05T11:17:05.802Z,60.4
2018-11-05T11:17:55.855Z,60.5
2018-11-05T11:18:46.204Z,60.6
2018-11-05T11:19:35.686Z,60.6
2018-11-05T11:20:26.334Z,60.6
2018-11-05T11:21:15.799Z,60.7
2018-11-05T11:22:06.089Z,60.8
2018-11-05T11:22:56.022Z,60.8
2018-11-05T11:23:46.699Z,60.8
2018-11-05T11:24:36.632Z,60.9
2018-11-05T11:25:26.399Z,61
2018-11-05T11:26:16.067Z,61
2018-11-05T11:27:06.327Z,61.1
2018-11-05T11:27:57.622Z,61.1
2018-11-05T11:28:47.033Z,61.2
2018-11-05T11:29:36.697Z,61.3
2018-11-05T11:30:26.482Z,61.3
2018-11-05T11:31:16.838Z,61.3
2018-11-05T11:32:06.876Z,61.3
2018-11-05T11:32:56.958Z,61.4
2018-11-05T11:33:46.996Z,61.5
2018-11-05T11:34:36.777Z,61.5
2018-11-05T11:35:27.447Z,61.6
2018-11-05T11:36:17.459Z,61.6
2018-11-05T11:37:07.538Z,61.7
2018-11-05T11:37:57.587Z,61.7
2018-11-05T11:38:47.666Z,61.7
2018-11-05T11:39:37.451Z,61.8
2018-11-05T11:40:27.786Z,61.8
2018-11-05T11:41:17.829Z,61.9
2018-11-05T11:42:07.417Z,61.9
2018-11-05T11:42:57.965Z,61.9
2018-11-05T11:43:48.306Z,61.9
2018-11-05T11:44:37.893Z,62
2018-11-05T11:45:27.571Z,62.1
2018-11-05T11:46:17.622Z,62.1
2018-11-05T11:47:07.703Z,62.1
2018-11-05T11:47:58.136Z,62.1
2018-11-05T11:48:48.397Z,62.1
2018-11-05T11:49:38.176Z,62.2
2018-11-05T11:50:28.536Z,62.3
2018-11-05T11:51:18.575Z,62.3
2018-11-05T11:52:08.877Z,62.3
2018-11-05T11:52:58.673Z,62.4
2018-11-05T11:53:48.708Z,62.4
2018-11-05T11:54:38.528Z,62.4
2018-11-05T11:55:28.603Z,62.4
2018-11-05T11:56:18.378Z,62.5
2018-11-05T11:57:09.018Z,62.5
2018-11-05T11:57:58.782Z,62.6
2018-11-05T11:58:48.844Z,62.6
2018-11-05T11:59:39.272Z,62.6
2018-11-05T12:00:29.283Z,62.6
2018-11-05T12:01:19.053Z,62.7
2018-11-05T12:02:09.693Z,62.8
2018-11-05T12:02:59.147Z,62.8
2018-11-05T12:03:49.212Z,62.8
2018-11-05T12:04:39.274Z,62.8
2018-11-05T12:05:29.218Z,62.8
2018-11-05T12:06:19.389Z,62.8
2018-11-05T12:07:09.769Z,62.8
2018-11-05T12:07:59.700Z,62.9
2018-11-05T12:08:49.282Z,62.9
2018-11-05T12:09:39.593Z,62.9
2018-11-05T12:10:29.398Z,62.9
2018-11-05T12:11:19.753Z,62.9
2018-11-05T12:12:09.821Z,62.9
2018-11-05T12:13:00.173Z,62.9
2018-11-05T12:13:50.281Z,63